sensor_id;sensor_type;location;lat;lon;timestamp;P1;durP1;ratioP1;P2;durP2;ratioP2
10509;SDS011;5303;53.266;10.410;2024-02-28T00:00:57;17.10;;;12.43;;
10509;SDS011;5303;53.266;10.410;2024-02-28T00:02:57;17.70;;;12.80;;
10509;SDS011;5303;53.266;10.410;2024-02-28T00:04:57;18.20;;;12.73;;
10509;SDS011;5303;53.266;10.410;2024-02-28T00:07:00;16.40;;;12.57;;
10509;SDS011;5303;53.266;10.410;2024-02-28T00:09:01;16.60;;;12.60;;
10509;SDS011;5303;53.266;10.410;2024-02-28T00:11:01;15.47;;;12.13;;
10509;SDS011;5303;53.266;10.410;2024-02-28T00:13:01;15.93;;;12.37;;
10509;SDS011;5303;53.266;10.410;2024-02-28T00:15:01;14.80;;;11.70;;
10509;SDS011;5303;53.266;10.410;2024-02-28T00:17:02;16.23;;;12.77;;
10509;SDS011;5303;53.266;10.410;2024-02-28T00:19:02;15.63;;;11.67;;
10509;SDS011;5303;53.266;10.410;2024-02-28T00:21:03;15.30;;;12.13;;
10509;SDS011;5303;53.266;10.410;2024-02-28T00:23:03;19.43;;;13.27;;
10509;SDS011;5303;53.266;10.410;2024-02-28T00:25:04;16.80;;;13.37;;
10509;SDS011;5303;53.266;10.410;2024-02-28T00:27:06;17.23;;;13.27;;
10509;SDS011;5303;53.266;10.410;2024-02-28T00:29:06;16.27;;;13.07;;
10509;SDS011;5303;53.266;10.410;2024-02-28T00:31:06;15.20;;;12.57;;
10509;SDS011;5303;53.266;10.410;2024-02-28T00:33:07;16.40;;;12.30;;
10509;SDS011;5303;53.266;10.410;2024-02-28T00:35:07;15.40;;;12.47;;
10509;SDS011;5303;53.266;10.410;2024-02-28T00:37:07;15.17;;;12.23;;
10509;SDS011;5303;53.266;10.410;2024-02-28T00:39:07;15.47;;;12.13;;
10509;SDS011;5303;53.266;10.410;2024-02-28T00:41:08;14.43;;;12.10;;
10509;SDS011;5303;53.266;10.410;2024-02-28T00:43:08;14.93;;;12.20;;
10509;SDS011;5303;53.266;10.410;2024-02-28T00:45:09;15.50;;;11.50;;
10509;SDS011;5303;53.266;10.410;2024-02-28T00:47:09;14.40;;;11.60;;
10509;SDS011;5303;53.266;10.410;2024-02-28T00:49:10;15.53;;;12.37;;
10509;SDS011;5303;53.266;10.410;2024-02-28T00:51:10;15.87;;;12.53;;
10509;SDS011;5303;53.266;10.410;2024-02-28T00:53:10;15.47;;;11.67;;
10509;SDS011;5303;53.266;10.410;2024-02-28T00:55:10;14.13;;;10.47;;
10509;SDS011;5303;53.266;10.410;2024-02-28T00:57:11;14.33;;;11.53;;
10509;SDS011;5303;53.266;10.410;2024-02-28T00:59:11;12.73;;;10.73;;
10509;SDS011;5303;53.266;10.410;2024-02-28T01:01:12;15.90;;;11.67;;
10509;SDS011;5303;53.266;10.410;2024-02-28T01:03:13;16.30;;;11.50;;
10509;SDS011;5303;53.266;10.410;2024-02-28T01:05:15;14.60;;;11.50;;
10509;SDS011;5303;53.266;10.410;2024-02-28T01:07:15;13.57;;;10.93;;
10509;SDS011;5303;53.266;10.410;2024-02-28T01:09:16;15.67;;;11.93;;
10509;SDS011;5303;53.266;10.410;2024-02-28T01:11:16;14.70;;;10.70;;
10509;SDS011;5303;53.266;10.410;2024-02-28T01:13:16;12.87;;;10.60;;
10509;SDS011;5303;53.266;10.410;2024-02-28T01:15:17;12.87;;;10.27;;
10509;SDS011;5303;53.266;10.410;2024-02-28T01:17:17;14.07;;;11.37;;
10509;SDS011;5303;53.266;10.410;2024-02-28T01:19:17;14.23;;;10.50;;
10509;SDS011;5303;53.266;10.410;2024-02-28T01:21:17;14.53;;;10.87;;
10509;SDS011;5303;53.266;10.410;2024-02-28T01:23:18;13.80;;;9.93;;
10509;SDS011;5303;53.266;10.410;2024-02-28T01:25:18;13.77;;;10.87;;
10509;SDS011;5303;53.266;10.410;2024-02-28T01:27:18;13.17;;;10.83;;
10509;SDS011;5303;53.266;10.410;2024-02-28T01:29:18;14.30;;;10.20;;
10509;SDS011;5303;53.266;10.410;2024-02-28T01:31:19;15.30;;;10.80;;
10509;SDS011;5303;53.266;10.410;2024-02-28T01:33:19;14.10;;;10.93;;
10509;SDS011;5303;53.266;10.410;2024-02-28T01:35:19;14.30;;;11.47;;
10509;SDS011;5303;53.266;10.410;2024-02-28T01:37:20;14.87;;;10.83;;
10509;SDS011;5303;53.266;10.410;2024-02-28T01:39:20;14.97;;;11.60;;
10509;SDS011;5303;53.266;10.410;2024-02-28T01:41:20;13.97;;;10.63;;
10509;SDS011;5303;53.266;10.410;2024-02-28T01:43:21;15.37;;;10.77;;
10509;SDS011;5303;53.266;10.410;2024-02-28T01:45:21;13.93;;;10.57;;
10509;SDS011;5303;53.266;10.410;2024-02-28T01:47:21;14.37;;;10.93;;
10509;SDS011;5303;53.266;10.410;2024-02-28T01:49:22;15.43;;;11.40;;
10509;SDS011;5303;53.266;10.410;2024-02-28T01:51:23;13.57;;;10.40;;
10509;SDS011;5303;53.266;10.410;2024-02-28T01:53:25;13.70;;;10.10;;
10509;SDS011;5303;53.266;10.410;2024-02-28T01:55:25;12.83;;;10.37;;
10509;SDS011;5303;53.266;10.410;2024-02-28T01:57:26;15.37;;;12.27;;
10509;SDS011;5303;53.266;10.410;2024-02-28T01:59:27;14.50;;;11.30;;
10509;SDS011;5303;53.266;10.410;2024-02-28T02:01:29;15.10;;;10.43;;
10509;SDS011;5303;53.266;10.410;2024-02-28T02:03:30;16.23;;;11.53;;
10509;SDS011;5303;53.266;10.410;2024-02-28T02:05:30;15.53;;;10.63;;
10509;SDS011;5303;53.266;10.410;2024-02-28T02:07:30;14.80;;;11.20;;
10509;SDS011;5303;53.266;10.410;2024-02-28T02:09:31;15.50;;;10.50;;
10509;SDS011;5303;53.266;10.410;2024-02-28T02:11:31;13.80;;;10.77;;
10509;SDS011;5303;53.266;10.410;2024-02-28T02:13:32;14.43;;;10.77;;
10509;SDS011;5303;53.266;10.410;2024-02-28T02:15:33;13.90;;;9.90;;
10509;SDS011;5303;53.266;10.410;2024-02-28T02:17:33;14.93;;;10.83;;
10509;SDS011;5303;53.266;10.410;2024-02-28T02:19:33;13.77;;;10.63;;
10509;SDS011;5303;53.266;10.410;2024-02-28T02:22:08;15.00;;;11.33;;
10509;SDS011;5303;53.266;10.410;2024-02-28T02:24:02;14.20;;;10.93;;
10509;SDS011;5303;53.266;10.410;2024-02-28T02:26:03;14.50;;;10.33;;
10509;SDS011;5303;53.266;10.410;2024-02-28T02:28:03;14.23;;;11.33;;
10509;SDS011;5303;53.266;10.410;2024-02-28T02:30:04;16.87;;;10.70;;
10509;SDS011;5303;53.266;10.410;2024-02-28T02:32:05;17.13;;;11.20;;
10509;SDS011;5303;53.266;10.410;2024-02-28T02:34:05;15.47;;;11.87;;
10509;SDS011;5303;53.266;10.410;2024-02-28T02:36:06;13.77;;;10.70;;
10509;SDS011;5303;53.266;10.410;2024-02-28T02:38:06;13.93;;;10.73;;
10509;SDS011;5303;53.266;10.410;2024-02-28T02:40:06;13.90;;;10.47;;
10509;SDS011;5303;53.266;10.410;2024-02-28T02:42:07;17.23;;;11.63;;
10509;SDS011;5303;53.266;10.410;2024-02-28T02:44:08;15.83;;;10.67;;
10509;SDS011;5303;53.266;10.410;2024-02-28T02:46:08;14.63;;;10.70;;
10509;SDS011;5303;53.266;10.410;2024-02-28T02:48:08;13.03;;;10.60;;
10509;SDS011;5303;53.266;10.410;2024-02-28T02:50:09;14.60;;;10.50;;
10509;SDS011;5303;53.266;10.410;2024-02-28T02:52:10;14.30;;;11.07;;
10509;SDS011;5303;53.266;10.410;2024-02-28T02:54:10;15.17;;;10.87;;
10509;SDS011;5303;53.266;10.410;2024-02-28T02:56:11;14.33;;;10.77;;
10509;SDS011;5303;53.266;10.410;2024-02-28T02:58:11;13.23;;;10.47;;
10509;SDS011;5303;53.266;10.410;2024-02-28T03:00:11;15.17;;;10.70;;
10509;SDS011;5303;53.266;10.410;2024-02-28T03:02:12;14.50;;;10.50;;
10509;SDS011;5303;53.266;10.410;2024-02-28T03:04:12;13.53;;;10.57;;
10509;SDS011;5303;53.266;10.410;2024-02-28T03:06:12;15.97;;;11.17;;
10509;SDS011;5303;53.266;10.410;2024-02-28T03:08:13;12.37;;;10.17;;
10509;SDS011;5303;53.266;10.410;2024-02-28T03:10:14;16.53;;;10.90;;
10509;SDS011;5303;53.266;10.410;2024-02-28T03:12:15;13.30;;;9.80;;
10509;SDS011;5303;53.266;10.410;2024-02-28T03:14:15;14.73;;;10.33;;
10509;SDS011;5303;53.266;10.410;2024-02-28T03:16:16;12.83;;;10.23;;
10509;SDS011;5303;53.266;10.410;2024-02-28T03:18:16;13.53;;;9.93;;
10509;SDS011;5303;53.266;10.410;2024-02-28T03:20:16;15.10;;;10.53;;
10509;SDS011;5303;53.266;10.410;2024-02-28T03:22:17;14.60;;;10.93;;
10509;SDS011;5303;53.266;10.410;2024-02-28T03:24:17;15.63;;;11.70;;
10509;SDS011;5303;53.266;10.410;2024-02-28T03:26:17;14.43;;;10.70;;
10509;SDS011;5303;53.266;10.410;2024-02-28T03:28:17;17.57;;;12.83;;
10509;SDS011;5303;53.266;10.410;2024-02-28T03:30:18;16.50;;;12.37;;
10509;SDS011;5303;53.266;10.410;2024-02-28T03:32:18;16.97;;;12.27;;
10509;SDS011;5303;53.266;10.410;2024-02-28T03:34:18;16.63;;;12.23;;
10509;SDS011;5303;53.266;10.410;2024-02-28T03:36:18;18.17;;;13.00;;
10509;SDS011;5303;53.266;10.410;2024-02-28T03:38:19;20.27;;;14.17;;
10509;SDS011;5303;53.266;10.410;2024-02-28T03:40:19;18.40;;;13.17;;
10509;SDS011;5303;53.266;10.410;2024-02-28T03:42:20;18.23;;;13.20;;
10509;SDS011;5303;53.266;10.410;2024-02-28T03:44:21;18.77;;;12.47;;
10509;SDS011;5303;53.266;10.410;2024-02-28T03:46:21;17.57;;;12.90;;
10509;SDS011;5303;53.266;10.410;2024-02-28T03:48:21;16.20;;;12.17;;
10509;SDS011;5303;53.266;10.410;2024-02-28T03:50:22;18.07;;;12.97;;
10509;SDS011;5303;53.266;10.410;2024-02-28T03:52:22;16.97;;;11.80;;
10509;SDS011;5303;53.266;10.410;2024-02-28T03:54:23;16.07;;;11.73;;
10509;SDS011;5303;53.266;10.410;2024-02-28T03:56:24;18.33;;;12.53;;
10509;SDS011;5303;53.266;10.410;2024-02-28T03:58:24;18.17;;;12.80;;
10509;SDS011;5303;53.266;10.410;2024-02-28T04:00:25;17.70;;;12.47;;
10509;SDS011;5303;53.266;10.410;2024-02-28T04:02:26;17.43;;;12.87;;
10509;SDS011;5303;53.266;10.410;2024-02-28T04:04:26;16.80;;;12.63;;
10509;SDS011;5303;53.266;10.410;2024-02-28T04:06:26;19.60;;;12.87;;
10509;SDS011;5303;53.266;10.410;2024-02-28T04:08:26;18.87;;;12.40;;
10509;SDS011;5303;53.266;10.410;2024-02-28T04:10:27;18.90;;;13.67;;
10509;SDS011;5303;53.266;10.410;2024-02-28T04:12:27;20.53;;;13.87;;
10509;SDS011;5303;53.266;10.410;2024-02-28T04:14:27;18.67;;;12.33;;
10509;SDS011;5303;53.266;10.410;2024-02-28T04:16:27;17.63;;;12.43;;
10509;SDS011;5303;53.266;10.410;2024-02-28T04:18:28;18.57;;;12.47;;
10509;SDS011;5303;53.266;10.410;2024-02-28T04:20:28;18.37;;;13.03;;
10509;SDS011;5303;53.266;10.410;2024-02-28T04:22:28;17.20;;;12.93;;
10509;SDS011;5303;53.266;10.410;2024-02-28T04:24:28;21.07;;;14.07;;
10509;SDS011;5303;53.266;10.410;2024-02-28T04:26:29;17.57;;;12.67;;
10509;SDS011;5303;53.266;10.410;2024-02-28T04:28:29;20.40;;;13.37;;
10509;SDS011;5303;53.266;10.410;2024-02-28T04:30:29;18.93;;;13.70;;
10509;SDS011;5303;53.266;10.410;2024-02-28T04:32:30;19.07;;;13.67;;
10509;SDS011;5303;53.266;10.410;2024-02-28T04:34:30;18.87;;;13.33;;
10509;SDS011;5303;53.266;10.410;2024-02-28T04:36:30;18.77;;;13.07;;
10509;SDS011;5303;53.266;10.410;2024-02-28T04:38:30;17.63;;;12.53;;
10509;SDS011;5303;53.266;10.410;2024-02-28T04:40:31;17.93;;;12.70;;
10509;SDS011;5303;53.266;10.410;2024-02-28T04:42:31;18.90;;;13.97;;
10509;SDS011;5303;53.266;10.410;2024-02-28T04:44:31;17.57;;;13.23;;
10509;SDS011;5303;53.266;10.410;2024-02-28T04:46:33;18.97;;;13.00;;
10509;SDS011;5303;53.266;10.410;2024-02-28T04:48:34;18.87;;;13.80;;
10509;SDS011;5303;53.266;10.410;2024-02-28T04:50:34;19.37;;;13.27;;
10509;SDS011;5303;53.266;10.410;2024-02-28T04:52:34;19.53;;;13.07;;
10509;SDS011;5303;53.266;10.410;2024-02-28T04:54:35;19.67;;;13.20;;
10509;SDS011;5303;53.266;10.410;2024-02-28T04:56:41;17.73;;;12.50;;
10509;SDS011;5303;53.266;10.410;2024-02-28T04:58:42;17.30;;;13.00;;
10509;SDS011;5303;53.266;10.410;2024-02-28T05:00:42;19.10;;;13.37;;
10509;SDS011;5303;53.266;10.410;2024-02-28T05:02:42;16.90;;;12.27;;
10509;SDS011;5303;53.266;10.410;2024-02-28T05:04:43;17.33;;;12.83;;
10509;SDS011;5303;53.266;10.410;2024-02-28T05:06:43;17.80;;;13.47;;
10509;SDS011;5303;53.266;10.410;2024-02-28T05:08:43;19.53;;;12.37;;
10509;SDS011;5303;53.266;10.410;2024-02-28T05:10:44;19.97;;;13.53;;
10509;SDS011;5303;53.266;10.410;2024-02-28T05:12:44;19.43;;;13.97;;
10509;SDS011;5303;53.266;10.410;2024-02-28T05:14:44;20.00;;;13.03;;
10509;SDS011;5303;53.266;10.410;2024-02-28T05:16:46;18.37;;;13.43;;
10509;SDS011;5303;53.266;10.410;2024-02-28T05:18:47;17.73;;;12.77;;
10509;SDS011;5303;53.266;10.410;2024-02-28T05:20:47;19.57;;;13.17;;
10509;SDS011;5303;53.266;10.410;2024-02-28T05:22:48;19.80;;;13.27;;
10509;SDS011;5303;53.266;10.410;2024-02-28T05:24:48;17.50;;;12.53;;
10509;SDS011;5303;53.266;10.410;2024-02-28T05:26:48;18.57;;;13.13;;
10509;SDS011;5303;53.266;10.410;2024-02-28T05:28:48;17.30;;;11.87;;
10509;SDS011;5303;53.266;10.410;2024-02-28T05:30:49;16.87;;;12.60;;
10509;SDS011;5303;53.266;10.410;2024-02-28T05:32:49;17.77;;;12.73;;
10509;SDS011;5303;53.266;10.410;2024-02-28T05:34:50;20.07;;;13.13;;
10509;SDS011;5303;53.266;10.410;2024-02-28T05:36:50;17.93;;;12.83;;
10509;SDS011;5303;53.266;10.410;2024-02-28T05:38:51;18.80;;;13.67;;
10509;SDS011;5303;53.266;10.410;2024-02-28T05:40:52;18.50;;;12.93;;
10509;SDS011;5303;53.266;10.410;2024-02-28T05:42:52;19.03;;;12.70;;
10509;SDS011;5303;53.266;10.410;2024-02-28T05:44:52;17.57;;;12.57;;
10509;SDS011;5303;53.266;10.410;2024-02-28T05:46:52;17.63;;;12.90;;
10509;SDS011;5303;53.266;10.410;2024-02-28T05:48:53;17.20;;;12.83;;
10509;SDS011;5303;53.266;10.410;2024-02-28T05:50:53;18.73;;;12.37;;
10509;SDS011;5303;53.266;10.410;2024-02-28T05:52:54;18.37;;;12.03;;
10509;SDS011;5303;53.266;10.410;2024-02-28T05:54:54;16.47;;;11.60;;
10509;SDS011;5303;53.266;10.410;2024-02-28T05:56:54;15.43;;;11.87;;
10509;SDS011;5303;53.266;10.410;2024-02-28T05:58:54;16.80;;;11.33;;
10509;SDS011;5303;53.266;10.410;2024-02-28T06:00:55;17.83;;;12.43;;
10509;SDS011;5303;53.266;10.410;2024-02-28T06:02:55;17.50;;;12.17;;
10509;SDS011;5303;53.266;10.410;2024-02-28T06:04:55;15.37;;;11.57;;
10509;SDS011;5303;53.266;10.410;2024-02-28T06:06:55;16.07;;;11.20;;
10509;SDS011;5303;53.266;10.410;2024-02-28T06:08:56;17.10;;;11.97;;
10509;SDS011;5303;53.266;10.410;2024-02-28T06:10:56;17.07;;;11.30;;
10509;SDS011;5303;53.266;10.410;2024-02-28T06:12:56;16.27;;;11.63;;
10509;SDS011;5303;53.266;10.410;2024-02-28T06:14:56;15.80;;;11.63;;
10509;SDS011;5303;53.266;10.410;2024-02-28T06:16:57;16.87;;;12.13;;
10509;SDS011;5303;53.266;10.410;2024-02-28T06:18:57;15.57;;;11.23;;
10509;SDS011;5303;53.266;10.410;2024-02-28T06:20:57;17.93;;;10.77;;
10509;SDS011;5303;53.266;10.410;2024-02-28T06:22:58;16.43;;;11.13;;
10509;SDS011;5303;53.266;10.410;2024-02-28T06:24:58;14.43;;;11.30;;
10509;SDS011;5303;53.266;10.410;2024-02-28T06:26:58;17.17;;;11.60;;
10509;SDS011;5303;53.266;10.410;2024-02-28T06:28:58;15.13;;;11.33;;
10509;SDS011;5303;53.266;10.410;2024-02-28T06:31:01;17.37;;;11.73;;
10509;SDS011;5303;53.266;10.410;2024-02-28T06:33:02;18.03;;;11.73;;
10509;SDS011;5303;53.266;10.410;2024-02-28T06:35:03;14.57;;;10.90;;
10509;SDS011;5303;53.266;10.410;2024-02-28T06:37:03;15.43;;;11.03;;
10509;SDS011;5303;53.266;10.410;2024-02-28T06:39:03;16.93;;;11.80;;
10509;SDS011;5303;53.266;10.410;2024-02-28T06:41:04;15.83;;;11.40;;
10509;SDS011;5303;53.266;10.410;2024-02-28T06:43:05;19.13;;;11.97;;
10509;SDS011;5303;53.266;10.410;2024-02-28T06:45:05;17.23;;;11.80;;
10509;SDS011;5303;53.266;10.410;2024-02-28T06:47:07;17.00;;;11.47;;
10509;SDS011;5303;53.266;10.410;2024-02-28T06:49:07;15.97;;;11.27;;
10509;SDS011;5303;53.266;10.410;2024-02-28T06:51:07;15.07;;;10.97;;
10509;SDS011;5303;53.266;10.410;2024-02-28T06:53:08;21.97;;;11.27;;
10509;SDS011;5303;53.266;10.410;2024-02-28T06:55:08;14.03;;;10.50;;
10509;SDS011;5303;53.266;10.410;2024-02-28T06:57:11;15.60;;;10.47;;
10509;SDS011;5303;53.266;10.410;2024-02-28T06:59:12;15.93;;;10.60;;
10509;SDS011;5303;53.266;10.410;2024-02-28T07:01:13;17.20;;;11.67;;
10509;SDS011;5303;53.266;10.410;2024-02-28T07:03:13;19.07;;;12.30;;
10509;SDS011;5303;53.266;10.410;2024-02-28T07:05:13;14.80;;;10.50;;
10509;SDS011;5303;53.266;10.410;2024-02-28T07:07:13;14.37;;;9.87;;
10509;SDS011;5303;53.266;10.410;2024-02-28T07:09:14;15.90;;;11.47;;
10509;SDS011;5303;53.266;10.410;2024-02-28T07:11:15;13.27;;;9.93;;
10509;SDS011;5303;53.266;10.410;2024-02-28T07:13:16;16.00;;;11.40;;
10509;SDS011;5303;53.266;10.410;2024-02-28T07:15:16;14.50;;;10.57;;
10509;SDS011;5303;53.266;10.410;2024-02-28T07:17:19;16.88;;;12.63;;
10509;SDS011;5303;53.266;10.410;2024-02-28T07:19:19;15.50;;;11.70;;
10509;SDS011;5303;53.266;10.410;2024-02-28T07:21:19;16.77;;;11.40;;
10509;SDS011;5303;53.266;10.410;2024-02-28T07:23:19;15.97;;;10.97;;
10509;SDS011;5303;53.266;10.410;2024-02-28T07:25:20;14.70;;;10.63;;
10509;SDS011;5303;53.266;10.410;2024-02-28T07:27:24;15.67;;;10.77;;
10509;SDS011;5303;53.266;10.410;2024-02-28T07:29:24;14.43;;;10.43;;
10509;SDS011;5303;53.266;10.410;2024-02-28T07:31:25;14.27;;;11.13;;
10509;SDS011;5303;53.266;10.410;2024-02-28T07:33:25;15.87;;;11.63;;
10509;SDS011;5303;53.266;10.410;2024-02-28T07:35:25;16.93;;;12.43;;
10509;SDS011;5303;53.266;10.410;2024-02-28T07:37:25;16.53;;;12.27;;
10509;SDS011;5303;53.266;10.410;2024-02-28T07:39:26;15.50;;;11.53;;
10509;SDS011;5303;53.266;10.410;2024-02-28T07:41:27;14.70;;;10.93;;
10509;SDS011;5303;53.266;10.410;2024-02-28T07:43:28;14.97;;;10.80;;
10509;SDS011;5303;53.266;10.410;2024-02-28T07:45:28;13.63;;;9.90;;
10509;SDS011;5303;53.266;10.410;2024-02-28T07:47:29;14.57;;;9.90;;
10509;SDS011;5303;53.266;10.410;2024-02-28T07:49:29;14.70;;;11.07;;
10509;SDS011;5303;53.266;10.410;2024-02-28T07:51:29;14.27;;;10.97;;
10509;SDS011;5303;53.266;10.410;2024-02-28T07:53:29;15.17;;;11.60;;
10509;SDS011;5303;53.266;10.410;2024-02-28T07:55:30;15.47;;;10.53;;
10509;SDS011;5303;53.266;10.410;2024-02-28T07:57:30;15.40;;;12.60;;
10509;SDS011;5303;53.266;10.410;2024-02-28T07:59:31;16.73;;;11.13;;
10509;SDS011;5303;53.266;10.410;2024-02-28T08:01:31;15.10;;;11.40;;
10509;SDS011;5303;53.266;10.410;2024-02-28T08:03:32;14.60;;;11.37;;
10509;SDS011;5303;53.266;10.410;2024-02-28T08:05:32;15.80;;;11.40;;
10509;SDS011;5303;53.266;10.410;2024-02-28T08:07:37;14.70;;;10.57;;
10509;SDS011;5303;53.266;10.410;2024-02-28T08:09:37;15.13;;;10.93;;
10509;SDS011;5303;53.266;10.410;2024-02-28T08:11:37;14.67;;;10.80;;
10509;SDS011;5303;53.266;10.410;2024-02-28T08:13:38;15.10;;;11.23;;
10509;SDS011;5303;53.266;10.410;2024-02-28T08:15:38;12.30;;;9.87;;
10509;SDS011;5303;53.266;10.410;2024-02-28T08:17:38;14.70;;;11.37;;
10509;SDS011;5303;53.266;10.410;2024-02-28T08:19:40;15.20;;;10.70;;
10509;SDS011;5303;53.266;10.410;2024-02-28T08:21:41;13.83;;;10.73;;
10509;SDS011;5303;53.266;10.410;2024-02-28T08:23:41;18.20;;;13.03;;
10509;SDS011;5303;53.266;10.410;2024-02-28T08:25:41;17.37;;;12.83;;
10509;SDS011;5303;53.266;10.410;2024-02-28T08:27:42;16.77;;;11.87;;
10509;SDS011;5303;53.266;10.410;2024-02-28T08:29:42;17.20;;;11.83;;
10509;SDS011;5303;53.266;10.410;2024-02-28T08:31:45;17.20;;;11.90;;
10509;SDS011;5303;53.266;10.410;2024-02-28T08:33:45;19.40;;;13.17;;
10509;SDS011;5303;53.266;10.410;2024-02-28T08:35:45;16.80;;;12.40;;
10509;SDS011;5303;53.266;10.410;2024-02-28T08:37:46;18.30;;;12.03;;
10509;SDS011;5303;53.266;10.410;2024-02-28T08:39:46;17.63;;;12.17;;
10509;SDS011;5303;53.266;10.410;2024-02-28T08:41:46;17.33;;;11.97;;
10509;SDS011;5303;53.266;10.410;2024-02-28T08:43:46;29.07;;;13.67;;
10509;SDS011;5303;53.266;10.410;2024-02-28T08:45:47;20.53;;;13.40;;
10509;SDS011;5303;53.266;10.410;2024-02-28T08:47:47;17.40;;;12.80;;
10509;SDS011;5303;53.266;10.410;2024-02-28T08:49:47;18.43;;;13.67;;
10509;SDS011;5303;53.266;10.410;2024-02-28T08:51:48;19.83;;;14.03;;
10509;SDS011;5303;53.266;10.410;2024-02-28T08:53:48;20.80;;;14.27;;
10509;SDS011;5303;53.266;10.410;2024-02-28T08:55:48;20.57;;;14.13;;
10509;SDS011;5303;53.266;10.410;2024-02-28T08:57:49;21.03;;;14.30;;
10509;SDS011;5303;53.266;10.410;2024-02-28T08:59:50;23.07;;;15.50;;
10509;SDS011;5303;53.266;10.410;2024-02-28T09:01:50;23.50;;;17.43;;
10509;SDS011;5303;53.266;10.410;2024-02-28T09:03:51;22.63;;;15.97;;
10509;SDS011;5303;53.266;10.410;2024-02-28T09:05:51;20.67;;;14.63;;
10509;SDS011;5303;53.266;10.410;2024-02-28T09:07:52;22.47;;;17.37;;
10509;SDS011;5303;53.266;10.410;2024-02-28T09:09:54;25.80;;;16.83;;
10509;SDS011;5303;53.266;10.410;2024-02-28T09:11:55;22.47;;;16.27;;
10509;SDS011;5303;53.266;10.410;2024-02-28T09:13:55;23.97;;;16.50;;
10509;SDS011;5303;53.266;10.410;2024-02-28T09:15:55;22.30;;;15.50;;
10509;SDS011;5303;53.266;10.410;2024-02-28T09:17:55;24.90;;;16.67;;
10509;SDS011;5303;53.266;10.410;2024-02-28T09:19:56;26.00;;;16.47;;
10509;SDS011;5303;53.266;10.410;2024-02-28T09:21:56;26.07;;;16.23;;
10509;SDS011;5303;53.266;10.410;2024-02-28T09:23:57;24.53;;;16.83;;
10509;SDS011;5303;53.266;10.410;2024-02-28T09:25:57;23.97;;;16.97;;
10509;SDS011;5303;53.266;10.410;2024-02-28T09:27:57;26.70;;;16.97;;
10509;SDS011;5303;53.266;10.410;2024-02-28T09:30:00;29.63;;;19.10;;
10509;SDS011;5303;53.266;10.410;2024-02-28T09:32:00;26.63;;;17.90;;
10509;SDS011;5303;53.266;10.410;2024-02-28T09:34:00;25.73;;;17.97;;
10509;SDS011;5303;53.266;10.410;2024-02-28T09:36:06;26.70;;;18.00;;
10509;SDS011;5303;53.266;10.410;2024-02-28T09:38:06;28.00;;;19.60;;
10509;SDS011;5303;53.266;10.410;2024-02-28T09:40:08;27.03;;;18.37;;
10509;SDS011;5303;53.266;10.410;2024-02-28T09:42:10;26.20;;;17.77;;
10509;SDS011;5303;53.266;10.410;2024-02-28T09:44:10;26.50;;;18.17;;
10509;SDS011;5303;53.266;10.410;2024-02-28T09:46:12;32.87;;;18.87;;
10509;SDS011;5303;53.266;10.410;2024-02-28T09:48:14;29.63;;;19.13;;
10509;SDS011;5303;53.266;10.410;2024-02-28T09:50:17;25.37;;;17.67;;
10509;SDS011;5303;53.266;10.410;2024-02-28T09:52:19;28.67;;;18.60;;
10509;SDS011;5303;53.266;10.410;2024-02-28T09:54:19;26.63;;;18.10;;
10509;SDS011;5303;53.266;10.410;2024-02-28T09:56:19;26.70;;;17.83;;
10509;SDS011;5303;53.266;10.410;2024-02-28T09:58:22;28.77;;;17.73;;
10509;SDS011;5303;53.266;10.410;2024-02-28T10:00:23;28.43;;;17.73;;
10509;SDS011;5303;53.266;10.410;2024-02-28T10:02:23;25.77;;;16.53;;
10509;SDS011;5303;53.266;10.410;2024-02-28T10:04:25;25.33;;;17.27;;
10509;SDS011;5303;53.266;10.410;2024-02-28T10:06:27;29.10;;;18.13;;
10509;SDS011;5303;53.266;10.410;2024-02-28T10:08:27;28.20;;;20.67;;
10509;SDS011;5303;53.266;10.410;2024-02-28T10:10:29;24.23;;;17.23;;
10509;SDS011;5303;53.266;10.410;2024-02-28T10:12:29;26.33;;;18.07;;
10509;SDS011;5303;53.266;10.410;2024-02-28T10:14:30;25.47;;;17.90;;
10509;SDS011;5303;53.266;10.410;2024-02-28T10:16:30;25.17;;;17.37;;
10509;SDS011;5303;53.266;10.410;2024-02-28T10:18:30;25.03;;;17.90;;
10509;SDS011;5303;53.266;10.410;2024-02-28T10:20:31;24.77;;;17.97;;
10509;SDS011;5303;53.266;10.410;2024-02-28T10:22:35;27.77;;;18.03;;
10509;SDS011;5303;53.266;10.410;2024-02-28T10:24:35;25.67;;;18.10;;
10509;SDS011;5303;53.266;10.410;2024-02-28T10:26:44;25.07;;;18.13;;
10509;SDS011;5303;53.266;10.410;2024-02-28T10:28:45;24.67;;;16.83;;
10509;SDS011;5303;53.266;10.410;2024-02-28T10:30:46;25.90;;;17.13;;
10509;SDS011;5303;53.266;10.410;2024-02-28T10:32:49;24.63;;;18.73;;
10509;SDS011;5303;53.266;10.410;2024-02-28T10:34:50;21.83;;;16.33;;
10509;SDS011;5303;53.266;10.410;2024-02-28T10:36:52;24.37;;;17.47;;
10509;SDS011;5303;53.266;10.410;2024-02-28T10:38:52;21.37;;;15.53;;
10509;SDS011;5303;53.266;10.410;2024-02-28T10:40:55;22.43;;;16.63;;
10509;SDS011;5303;53.266;10.410;2024-02-28T10:42:56;25.63;;;17.77;;
10509;SDS011;5303;53.266;10.410;2024-02-28T10:44:58;23.97;;;16.83;;
10509;SDS011;5303;53.266;10.410;2024-02-28T10:46:59;25.93;;;17.40;;
10509;SDS011;5303;53.266;10.410;2024-02-28T10:49:00;22.50;;;16.27;;
10509;SDS011;5303;53.266;10.410;2024-02-28T10:51:02;21.53;;;15.47;;
10509;SDS011;5303;53.266;10.410;2024-02-28T10:53:04;26.05;;;18.52;;
10509;SDS011;5303;53.266;10.410;2024-02-28T10:55:05;22.27;;;17.03;;
10509;SDS011;5303;53.266;10.410;2024-02-28T10:57:08;23.00;;;16.10;;
10509;SDS011;5303;53.266;10.410;2024-02-28T10:59:12;24.13;;;16.90;;
10509;SDS011;5303;53.266;10.410;2024-02-28T11:01:12;21.77;;;15.57;;
10509;SDS011;5303;53.266;10.410;2024-02-28T11:03:15;21.47;;;15.20;;
10509;SDS011;5303;53.266;10.410;2024-02-28T11:05:17;22.83;;;15.83;;
10509;SDS011;5303;53.266;10.410;2024-02-28T11:07:21;20.67;;;14.90;;
10509;SDS011;5303;53.266;10.410;2024-02-28T11:09:22;20.83;;;14.77;;
10509;SDS011;5303;53.266;10.410;2024-02-28T11:11:23;21.83;;;15.80;;
10509;SDS011;5303;53.266;10.410;2024-02-28T11:13:24;20.17;;;14.60;;
10509;SDS011;5303;53.266;10.410;2024-02-28T11:15:26;23.27;;;14.90;;
10509;SDS011;5303;53.266;10.410;2024-02-28T11:17:28;20.33;;;14.57;;
10509;SDS011;5303;53.266;10.410;2024-02-28T11:19:29;22.30;;;14.77;;
10509;SDS011;5303;53.266;10.410;2024-02-28T11:21:34;20.00;;;15.10;;
10509;SDS011;5303;53.266;10.410;2024-02-28T11:23:35;20.17;;;14.90;;
10509;SDS011;5303;53.266;10.410;2024-02-28T11:25:37;20.77;;;15.00;;
10509;SDS011;5303;53.266;10.410;2024-02-28T11:27:47;20.73;;;14.97;;
10509;SDS011;5303;53.266;10.410;2024-02-28T11:29:48;20.37;;;14.10;;
10509;SDS011;5303;53.266;10.410;2024-02-28T11:31:49;19.83;;;14.67;;
10509;SDS011;5303;53.266;10.410;2024-02-28T11:33:50;20.60;;;13.73;;
10509;SDS011;5303;53.266;10.410;2024-02-28T11:35:56;19.50;;;14.40;;
10509;SDS011;5303;53.266;10.410;2024-02-28T11:37:57;18.53;;;12.80;;
10509;SDS011;5303;53.266;10.410;2024-02-28T11:39:57;17.57;;;12.73;;
10509;SDS011;5303;53.266;10.410;2024-02-28T11:42:14;19.03;;;13.83;;
10509;SDS011;5303;53.266;10.410;2024-02-28T11:44:16;21.07;;;15.03;;
10509;SDS011;5303;53.266;10.410;2024-02-28T11:46:18;24.43;;;15.63;;